Dakar, Senegal

9:54 AM GMT on August 01, 2014 (GMT +0000)
Ngor Almadies (IDAKARDA2) Elev 46 ft | 14.74 °N, 17.51 °W | Change Station

Current weather conditions updated 0 second ago

Partly Cloudy
Partly Cloudy
82.1 °F
Feels Like 88 °F
N
1.0
Wind Variable Wind from NNE
Gusts 2.0 mph

Today is forecast to be Cooler than yesterday. Showers ending early tonight.

Today
High -- | Low -- °F
--% Chance of Precip.
Yesterday
High -- | Low -- °F
Precip. -- in
6:53 AM 7:39 PM
Waxing Crescent, 25% visible
Pressure 29.98 in
Visibility 6.2 miles
Clouds Few 800 ft
Heat Index 88 °F
Dew Point 73 °F
Humidity 74%
Rainfall 0.00 in
Snow Depth Not available.
UV 4 out of 12
Pollen Not available.
Air Quality Not available.
Flu Activity Not available.
METAR GOOY 010930Z 33004KT 240V040 9999 FEW008 28/22 Q1015 NOSIG

More Conditions Fewer Conditions

Pressure 29.98 in
Visibility 6.2 miles
Clouds Few 800 ft
Heat Index 88 °F
Dew Point 73 °F
Humidity 74%
Rainfall 0.00 in
Snow Depth Not available.
UV 4 out of 12
Pollen Not available.
Air Quality Not available.
Flu Activity Not available.
METAR GOOY 010930Z 33004KT 240V040 9999 FEW008 28/22 Q1015 NOSIG

More Conditions Fewer Conditions

10-Day Weather Forecast

Almanac

Astronomy

Aug. 01, 2014 Rise Set
Actual Time 6:53 AM GMT 7:39 PM GMT
Civil Twilight 6:30 AM GMT 8:02 PM GMT
Nautical Twilight 6:03 AM GMT 8:28 PM GMT
Astronomical Twilight 5:36 AM GMT 8:55 PM GMT
Moon 11:09 AM GMT 11:17 PM GMT
Length of Visible Light 13h 31m
Length of Day
12h 46m
Tomorrow will be 0m 37s shorter.
Waxing Crescent, 25% of the Moon is Illuminated
Today
Waxing Crescent
Aug 3
First Quarter
Aug 10
Full
Aug 17
Last Quarter
Aug 25
New

Yesterday's Extremes

Country Highs Country Lows

Community

WunderPhotos

Upload Photos

1,739,530 photos uploaded!

Nearby

Snow Depth

Not available.

Earthquake Activity

City Distance Mag. Time & Date
No recent earthquake activity has been reported nearby.
Minimum magnitude displayed is 2.5.

Coastal Water Temperatures

Place Temperature
No Stations Reporting

Nearby Weather Stations

Station Location Temp. Heat Index Dew Point Humidity Wind Precip. Elev Updated Type
Ngor Almadies, Dakar 82.1 °F 88 °F 73 °F 74% NNE  at  1.0 mph 0.00 in / hr 46 ft 9:54 AM GMT Rapid Fire

Show More Stations Show Fewer Stations